Bad Frankenhausen Airport


Codes: EDOF/
Name: Bad Frankenhausen Airport
City: Bad Frankenhausen
Country: Germany
Elevation: 761 ft.

Photos at Bad Frankenhausen Airport


   Photos courtesy of SpottingLog. You can add your own sightings and photos by signing up for a free trial today.



No photos found.

Weather at Bad Frankenhausen Airport


Time (UTC)DescriptionTempratureWindCloud coverageVisibilityPressureHumidity
16-Jun-2024 00:00Broken Clouds11°C2 mph, SW76%10000m1011hPa81%
16-Jun-2024 03:00Broken Clouds10°C2 mph, SW54%10000m1011hPa83%
16-Jun-2024 06:00Scattered Clouds12°C7 mph, SW43%10000m1011hPa77%
16-Jun-2024 09:00Broken Clouds16°C13 mph, SW70%10000m1011hPa66%
16-Jun-2024 12:00Light Rain18°C16 mph, SW72%10000m1010hPa65%
16-Jun-2024 15:00Light Rain17°C11 mph, SW74%10000m1010hPa71%
16-Jun-2024 18:00Light Rain14°C7 mph, W86%10000m1010hPa82%
16-Jun-2024 21:00Overcast Clouds12°C4 mph, SW100%10000m1012hPa87%
17-Jun-2024 00:00Broken Clouds10°C2 mph, SW73%10000m1013hPa91%
17-Jun-2024 03:00Overcast Clouds10°C2 mph, S86%10000m1014hPa94%
17-Jun-2024 06:00Overcast Clouds14°C7 mph, SW94%10000m1014hPa87%
17-Jun-2024 09:00Light Rain17°C13 mph, SW94%10000m1014hPa75%
17-Jun-2024 12:00Light Rain18°C11 mph, SW98%10000m1014hPa78%
17-Jun-2024 15:00Light Rain20°C11 mph, SW97%10000m1014hPa72%
17-Jun-2024 18:00Light Rain15°C9 mph, SW99%10000m1014hPa92%
17-Jun-2024 21:00Overcast Clouds14°C7 mph, SW100%10000m1016hPa96%
18-Jun-2024 00:00Overcast Clouds12°C4 mph, SW85%10000m1016hPa97%
18-Jun-2024 03:00Broken Clouds11°C4 mph, SW59%10000m1017hPa98%
18-Jun-2024 06:00Broken Clouds15°C7 mph, SW77%10000m1017hPa92%
18-Jun-2024 09:00Overcast Clouds17°C7 mph, W100%10000m1017hPa82%
18-Jun-2024 12:00Overcast Clouds20°C4 mph, W100%10000m1016hPa70%
18-Jun-2024 15:00Light Rain22°C4 mph, SW63%10000m1015hPa67%
18-Jun-2024 18:00Moderate Rain17°C4 mph, NW81%10000m1015hPa92%
18-Jun-2024 21:00Light Rain15°C7 mph, NW100%10000m1016hPa96%
19-Jun-2024 00:00Light Rain14°C4 mph, W100%10000m1017hPa96%
19-Jun-2024 03:00Overcast Clouds11°C4 mph, NW85%10000m1018hPa95%
19-Jun-2024 06:00Broken Clouds14°C4 mph, NW59%10000m1020hPa80%
19-Jun-2024 09:00Broken Clouds17°C7 mph, W57%10000m1021hPa61%
19-Jun-2024 12:00Broken Clouds19°C9 mph, W52%10000m1021hPa55%
19-Jun-2024 15:00Broken Clouds19°C9 mph, W71%10000m1022hPa53%
19-Jun-2024 18:00Broken Clouds17°C4 mph, NW77%10000m1022hPa75%
19-Jun-2024 21:00Overcast Clouds11°C2 mph, NE93%10000m1024hPa88%
20-Jun-2024 00:00Broken Clouds9°C0 mph, E54%10000m1023hPa88%
20-Jun-2024 03:00Clear Sky8°C4 mph, NE5%10000m1022hPa90%
20-Jun-2024 06:00Clear Sky13°C4 mph, E2%10000m1021hPa79%
20-Jun-2024 09:00Few Clouds18°C7 mph, SE12%10000m1019hPa67%
20-Jun-2024 12:00Few Clouds22°C4 mph, SE19%10000m1017hPa60%
20-Jun-2024 15:00Broken Clouds24°C7 mph, E53%10000m1014hPa61%
20-Jun-2024 18:00Scattered Clouds22°C4 mph, NE47%10000m1012hPa76%
20-Jun-2024 21:00Scattered Clouds18°C4 mph, NE42%10000m1010hPa79%